sensor_id;sensor_type;location;lat;lon;timestamp;pressure;altitude;pressure_sealevel;temperature;humidity
71565;BME280;59397;50.952;14.502;2022-10-30T00:00:55;976.31;;;11.42;100.00
71565;BME280;59397;50.952;14.502;2022-10-30T00:20:16;976.10;;;11.55;100.00
71565;BME280;59397;50.952;14.502;2022-10-30T00:39:59;976.12;;;11.50;100.00
71565;BME280;59397;50.952;14.502;2022-10-30T00:58:41;976.08;;;11.31;100.00
71565;BME280;59397;50.952;14.502;2022-10-30T01:18:12;975.94;;;11.40;100.00
71565;BME280;59397;50.952;14.502;2022-10-30T01:37:36;975.79;;;11.08;100.00
71565;BME280;59397;50.952;14.502;2022-10-30T01:57:02;975.68;;;10.83;100.00
71565;BME280;59397;50.952;14.502;2022-10-30T02:16:25;975.62;;;10.19;100.00
71565;BME280;59397;50.952;14.502;2022-10-30T02:35:55;975.58;;;10.69;100.00
71565;BME280;59397;50.952;14.502;2022-10-30T02:55:23;975.49;;;10.51;100.00
71565;BME280;59397;50.952;14.502;2022-10-30T03:14:51;975.44;;;10.15;100.00
71565;BME280;59397;50.952;14.502;2022-10-30T03:34:20;975.33;;;10.61;100.00
71565;BME280;59397;50.952;14.502;2022-10-30T03:53:50;975.30;;;11.04;100.00
71565;BME280;59397;50.952;14.502;2022-10-30T04:13:19;975.33;;;11.22;100.00
71565;BME280;59397;50.952;14.502;2022-10-30T04:32:46;975.17;;;11.34;100.00
71565;BME280;59397;50.952;14.502;2022-10-30T04:52:14;975.14;;;11.24;100.00
71565;BME280;59397;50.952;14.502;2022-10-30T05:11:42;974.93;;;10.99;100.00
71565;BME280;59397;50.952;14.502;2022-10-30T05:31:09;975.09;;;10.94;100.00
71565;BME280;59397;50.952;14.502;2022-10-30T05:50:37;975.42;;;10.80;100.00
71565;BME280;59397;50.952;14.502;2022-10-30T06:10:04;975.45;;;10.49;100.00
71565;BME280;59397;50.952;14.502;2022-10-30T06:29:30;975.47;;;10.27;100.00
71565;BME280;59397;50.952;14.502;2022-10-30T06:49:05;975.45;;;10.85;100.00
71565;BME280;59397;50.952;14.502;2022-10-30T07:08:25;975.62;;;11.05;100.00
71565;BME280;59397;50.952;14.502;2022-10-30T07:27:52;975.54;;;11.24;100.00
71565;BME280;59397;50.952;14.502;2022-10-30T07:47:23;975.59;;;11.83;100.00
71565;BME280;59397;50.952;14.502;2022-10-30T08:06:46;975.60;;;12.07;100.00
71565;BME280;59397;50.952;14.502;2022-10-30T08:26:15;975.44;;;12.67;100.00
71565;BME280;59397;50.952;14.502;2022-10-30T08:45:45;975.39;;;13.74;100.00
71565;BME280;59397;50.952;14.502;2022-10-30T09:05:15;975.16;;;14.19;100.00
71565;BME280;59397;50.952;14.502;2022-10-30T09:24:46;975.27;;;14.83;95.64
71565;BME280;59397;50.952;14.502;2022-10-30T09:44:18;975.38;;;15.27;92.53
71565;BME280;59397;50.952;14.502;2022-10-30T10:03:50;975.34;;;15.49;89.93
71565;BME280;59397;50.952;14.502;2022-10-30T10:23:27;975.32;;;15.77;88.22
71565;BME280;59397;50.952;14.502;2022-10-30T10:42:49;975.36;;;16.23;84.25
71565;BME280;59397;50.952;14.502;2022-10-30T11:21:45;975.33;;;16.71;81.50
71565;BME280;59397;50.952;14.502;2022-10-30T11:41:14;975.23;;;16.80;76.54
71565;BME280;59397;50.952;14.502;2022-10-30T12:00:43;975.24;;;16.99;75.12
71565;BME280;59397;50.952;14.502;2022-10-30T12:20:13;975.13;;;17.09;74.34
71565;BME280;59397;50.952;14.502;2022-10-30T12:39:44;975.03;;;17.03;75.24
71565;BME280;59397;50.952;14.502;2022-10-30T12:59:16;974.79;;;17.11;75.64
71565;BME280;59397;50.952;14.502;2022-10-30T13:18:32;974.79;;;17.11;76.27
71565;BME280;59397;50.952;14.502;2022-10-30T13:38:03;974.67;;;17.05;74.58
71565;BME280;59397;50.952;14.502;2022-10-30T13:57:26;974.65;;;16.89;73.82
71565;BME280;59397;50.952;14.502;2022-10-30T14:36:21;974.60;;;16.41;77.01
71565;BME280;59397;50.952;14.502;2022-10-30T14:55:49;974.62;;;15.77;82.96
71565;BME280;59397;50.952;14.502;2022-10-30T15:15:14;974.62;;;15.10;87.40
71565;BME280;59397;50.952;14.502;2022-10-30T15:53:58;974.80;;;13.39;95.09
71565;BME280;59397;50.952;14.502;2022-10-30T16:13:22;974.84;;;12.93;97.63
71565;BME280;59397;50.952;14.502;2022-10-30T16:32:47;974.91;;;12.24;100.00
71565;BME280;59397;50.952;14.502;2022-10-30T16:52:10;974.82;;;11.43;100.00
71565;BME280;59397;50.952;14.502;2022-10-30T17:11:37;975.02;;;11.46;100.00
71565;BME280;59397;50.952;14.502;2022-10-30T17:50:30;975.17;;;10.33;100.00
71565;BME280;59397;50.952;14.502;2022-10-30T18:09:58;975.07;;;10.29;100.00
71565;BME280;59397;50.952;14.502;2022-10-30T18:29:27;975.12;;;10.09;100.00
71565;BME280;59397;50.952;14.502;2022-10-30T18:48:55;975.03;;;10.46;100.00
71565;BME280;59397;50.952;14.502;2022-10-30T19:08:24;974.94;;;11.28;100.00
71565;BME280;59397;50.952;14.502;2022-10-30T19:27:53;974.94;;;11.36;100.00
71565;BME280;59397;50.952;14.502;2022-10-30T19:47:19;974.98;;;11.13;100.00
71565;BME280;59397;50.952;14.502;2022-10-30T20:06:46;975.01;;;10.91;100.00
71565;BME280;59397;50.952;14.502;2022-10-30T20:26:15;975.01;;;10.91;100.00
71565;BME280;59397;50.952;14.502;2022-10-30T20:45:41;975.17;;;10.88;100.00
71565;BME280;59397;50.952;14.502;2022-10-30T21:05:10;975.22;;;11.24;100.00
71565;BME280;59397;50.952;14.502;2022-10-30T21:24:39;975.25;;;11.24;100.00
71565;BME280;59397;50.952;14.502;2022-10-30T21:44:07;975.41;;;11.19;100.00
71565;BME280;59397;50.952;14.502;2022-10-30T22:03:34;975.52;;;10.66;100.00
71565;BME280;59397;50.952;14.502;2022-10-30T22:22:59;975.46;;;9.27;100.00
71565;BME280;59397;50.952;14.502;2022-10-30T22:42:24;975.44;;;9.54;100.00
71565;BME280;59397;50.952;14.502;2022-10-30T23:01:51;975.55;;;9.21;100.00
71565;BME280;59397;50.952;14.502;2022-10-30T23:21:22;975.51;;;9.86;100.00
71565;BME280;59397;50.952;14.502;2022-10-30T23:40:50;975.65;;;10.36;100.00
